Airport View

Enter AWOS ICAO identifier for current METAR.

ex. KFNL

KOOA 030050Z AUTO 21011KT 10SM CLR 30/20 A2984 RMK AO2 T03010200

3 Jun 2020 00:53

Frequency: 118.625

Phone: 641-933-4312

Other Area AWOS: KOTM - KPEA - KFFL - KOXV

TAF KOTM 022343Z 0300/0324 21018KT P6SM FEW250 FM030700 23009KT P6SM BKN200 FM031300 26006KT P6SM BKN050 FM031500 VRB05KT P6SM SCT045